sensor_id;sensor_type;location;lat;lon;timestamp;P1;durP1;ratioP1;P2;durP2;ratioP2
9823;SDS011;4951;50.778;7.196;2022-10-12T00:01:16;10.50;;;6.43;;
9823;SDS011;4951;50.778;7.196;2022-10-12T00:03:43;9.37;;;6.33;;
9823;SDS011;4951;50.778;7.196;2022-10-12T00:06:11;16.20;;;6.00;;
9823;SDS011;4951;50.778;7.196;2022-10-12T00:08:40;10.07;;;6.57;;
9823;SDS011;4951;50.778;7.196;2022-10-12T00:11:09;10.67;;;6.40;;
9823;SDS011;4951;50.778;7.196;2022-10-12T00:13:39;10.20;;;6.00;;
9823;SDS011;4951;50.778;7.196;2022-10-12T00:16:08;10.60;;;6.10;;
9823;SDS011;4951;50.778;7.196;2022-10-12T00:18:38;11.97;;;5.77;;
9823;SDS011;4951;50.778;7.196;2022-10-12T00:21:07;9.30;;;5.27;;
9823;SDS011;4951;50.778;7.196;2022-10-12T00:23:35;8.97;;;5.60;;
9823;SDS011;4951;50.778;7.196;2022-10-12T00:26:04;10.53;;;6.10;;
9823;SDS011;4951;50.778;7.196;2022-10-12T00:28:32;9.07;;;5.93;;
9823;SDS011;4951;50.778;7.196;2022-10-12T00:31:05;9.80;;;5.83;;
9823;SDS011;4951;50.778;7.196;2022-10-12T00:33:37;8.67;;;6.30;;
9823;SDS011;4951;50.778;7.196;2022-10-12T00:36:12;10.37;;;6.13;;
9823;SDS011;4951;50.778;7.196;2022-10-12T00:38:40;10.00;;;5.67;;
9823;SDS011;4951;50.778;7.196;2022-10-12T00:41:07;9.93;;;5.70;;
9823;SDS011;4951;50.778;7.196;2022-10-12T00:43:35;8.07;;;5.37;;
9823;SDS011;4951;50.778;7.196;2022-10-12T00:46:08;10.10;;;5.63;;
9823;SDS011;4951;50.778;7.196;2022-10-12T00:48:39;7.27;;;5.17;;
9823;SDS011;4951;50.778;7.196;2022-10-12T00:51:07;11.73;;;6.37;;
9823;SDS011;4951;50.778;7.196;2022-10-12T00:53:37;9.50;;;5.83;;
9823;SDS011;4951;50.778;7.196;2022-10-12T00:56:09;8.50;;;5.50;;
9823;SDS011;4951;50.778;7.196;2022-10-12T00:58:40;8.60;;;5.60;;
9823;SDS011;4951;50.778;7.196;2022-10-12T01:01:08;9.80;;;5.80;;
9823;SDS011;4951;50.778;7.196;2022-10-12T01:03:36;7.70;;;5.43;;
9823;SDS011;4951;50.778;7.196;2022-10-12T01:06:04;7.20;;;5.77;;
9823;SDS011;4951;50.778;7.196;2022-10-12T01:08:32;8.73;;;5.70;;
9823;SDS011;4951;50.778;7.196;2022-10-12T01:11:00;13.70;;;6.33;;
9823;SDS011;4951;50.778;7.196;2022-10-12T01:13:27;8.60;;;5.20;;
9823;SDS011;4951;50.778;7.196;2022-10-12T01:15:56;8.83;;;5.70;;
9823;SDS011;4951;50.778;7.196;2022-10-12T01:18:30;11.53;;;6.73;;
9823;SDS011;4951;50.778;7.196;2022-10-12T01:21:08;12.07;;;5.73;;
9823;SDS011;4951;50.778;7.196;2022-10-12T01:24:04;8.33;;;6.03;;
9823;SDS011;4951;50.778;7.196;2022-10-12T01:27:11;9.27;;;5.70;;
9823;SDS011;4951;50.778;7.196;2022-10-12T01:30:03;11.37;;;6.63;;
9823;SDS011;4951;50.778;7.196;2022-10-12T01:32:38;10.00;;;6.77;;
9823;SDS011;4951;50.778;7.196;2022-10-12T01:35:23;8.60;;;5.53;;
9823;SDS011;4951;50.778;7.196;2022-10-12T01:37:58;8.93;;;6.37;;
9823;SDS011;4951;50.778;7.196;2022-10-12T01:40:32;8.10;;;5.23;;
9823;SDS011;4951;50.778;7.196;2022-10-12T01:43:03;8.50;;;5.77;;
9823;SDS011;4951;50.778;7.196;2022-10-12T01:45:32;9.93;;;5.47;;
9823;SDS011;4951;50.778;7.196;2022-10-12T01:47:59;10.70;;;5.80;;
9823;SDS011;4951;50.778;7.196;2022-10-12T01:50:30;11.13;;;5.90;;
9823;SDS011;4951;50.778;7.196;2022-10-12T01:53:08;7.70;;;5.73;;
9823;SDS011;4951;50.778;7.196;2022-10-12T01:55:45;8.17;;;5.93;;
9823;SDS011;4951;50.778;7.196;2022-10-12T01:58:19;11.63;;;6.20;;
9823;SDS011;4951;50.778;7.196;2022-10-12T02:01:02;9.23;;;5.37;;
9823;SDS011;4951;50.778;7.196;2022-10-12T02:03:36;6.90;;;5.27;;
9823;SDS011;4951;50.778;7.196;2022-10-12T02:06:11;8.77;;;5.40;;
9823;SDS011;4951;50.778;7.196;2022-10-12T02:08:44;11.23;;;5.10;;
9823;SDS011;4951;50.778;7.196;2022-10-12T02:11:17;10.53;;;5.80;;
9823;SDS011;4951;50.778;7.196;2022-10-12T02:13:48;6.77;;;4.53;;
9823;SDS011;4951;50.778;7.196;2022-10-12T02:16:30;8.87;;;5.40;;
9823;SDS011;4951;50.778;7.196;2022-10-12T02:18:59;12.37;;;6.70;;
9823;SDS011;4951;50.778;7.196;2022-10-12T02:21:30;9.53;;;5.40;;
9823;SDS011;4951;50.778;7.196;2022-10-12T02:24:00;8.97;;;4.37;;
9823;SDS011;4951;50.778;7.196;2022-10-12T02:26:31;10.80;;;5.90;;
9823;SDS011;4951;50.778;7.196;2022-10-12T02:29:01;7.43;;;5.30;;
9823;SDS011;4951;50.778;7.196;2022-10-12T02:31:34;8.90;;;5.30;;
9823;SDS011;4951;50.778;7.196;2022-10-12T02:34:07;9.47;;;5.30;;
9823;SDS011;4951;50.778;7.196;2022-10-12T02:36:38;10.53;;;5.93;;
9823;SDS011;4951;50.778;7.196;2022-10-12T02:39:14;8.20;;;5.47;;
9823;SDS011;4951;50.778;7.196;2022-10-12T02:41:46;8.70;;;5.47;;
9823;SDS011;4951;50.778;7.196;2022-10-12T02:44:17;9.97;;;5.33;;
9823;SDS011;4951;50.778;7.196;2022-10-12T02:46:49;8.40;;;6.00;;
9823;SDS011;4951;50.778;7.196;2022-10-12T02:49:19;10.93;;;5.27;;
9823;SDS011;4951;50.778;7.196;2022-10-12T02:51:50;9.57;;;5.80;;
9823;SDS011;4951;50.778;7.196;2022-10-12T02:54:18;9.40;;;6.00;;
9823;SDS011;4951;50.778;7.196;2022-10-12T02:56:46;9.60;;;5.83;;
9823;SDS011;4951;50.778;7.196;2022-10-12T02:59:13;9.60;;;5.57;;
9823;SDS011;4951;50.778;7.196;2022-10-12T03:01:42;11.77;;;5.83;;
9823;SDS011;4951;50.778;7.196;2022-10-12T03:04:10;9.70;;;5.77;;
9823;SDS011;4951;50.778;7.196;2022-10-12T03:06:37;7.33;;;4.90;;
9823;SDS011;4951;50.778;7.196;2022-10-12T03:09:06;10.17;;;5.80;;
9823;SDS011;4951;50.778;7.196;2022-10-12T03:11:34;8.13;;;4.67;;
9823;SDS011;4951;50.778;7.196;2022-10-12T03:14:02;9.67;;;5.40;;
9823;SDS011;4951;50.778;7.196;2022-10-12T03:16:29;6.60;;;5.00;;
9823;SDS011;4951;50.778;7.196;2022-10-12T03:18:56;8.67;;;4.93;;
9823;SDS011;4951;50.778;7.196;2022-10-12T03:21:25;7.53;;;5.07;;
9823;SDS011;4951;50.778;7.196;2022-10-12T03:23:52;7.93;;;5.50;;
9823;SDS011;4951;50.778;7.196;2022-10-12T03:26:19;9.63;;;5.63;;
9823;SDS011;4951;50.778;7.196;2022-10-12T03:28:46;12.90;;;6.47;;
9823;SDS011;4951;50.778;7.196;2022-10-12T03:31:13;9.57;;;5.47;;
9823;SDS011;4951;50.778;7.196;2022-10-12T03:33:40;9.83;;;5.63;;
9823;SDS011;4951;50.778;7.196;2022-10-12T03:36:15;9.83;;;4.97;;
9823;SDS011;4951;50.778;7.196;2022-10-12T03:38:46;7.17;;;5.10;;
9823;SDS011;4951;50.778;7.196;2022-10-12T03:41:13;8.37;;;5.17;;
9823;SDS011;4951;50.778;7.196;2022-10-12T03:43:42;6.93;;;4.80;;
9823;SDS011;4951;50.778;7.196;2022-10-12T03:46:09;10.33;;;5.40;;
9823;SDS011;4951;50.778;7.196;2022-10-12T03:48:51;9.17;;;5.87;;
9823;SDS011;4951;50.778;7.196;2022-10-12T03:51:18;7.27;;;5.33;;
9823;SDS011;4951;50.778;7.196;2022-10-12T03:53:46;10.57;;;5.03;;
9823;SDS011;4951;50.778;7.196;2022-10-12T03:56:14;9.63;;;6.33;;
9823;SDS011;4951;50.778;7.196;2022-10-12T03:58:41;9.37;;;6.37;;
9823;SDS011;4951;50.778;7.196;2022-10-12T04:01:08;14.53;;;6.63;;
9823;SDS011;4951;50.778;7.196;2022-10-12T04:03:35;9.00;;;6.40;;
9823;SDS011;4951;50.778;7.196;2022-10-12T04:06:03;12.97;;;6.50;;
9823;SDS011;4951;50.778;7.196;2022-10-12T04:08:30;12.67;;;5.47;;
9823;SDS011;4951;50.778;7.196;2022-10-12T04:10:58;12.07;;;5.67;;
9823;SDS011;4951;50.778;7.196;2022-10-12T04:13:26;9.83;;;5.63;;
9823;SDS011;4951;50.778;7.196;2022-10-12T04:15:53;9.63;;;5.30;;
9823;SDS011;4951;50.778;7.196;2022-10-12T04:18:20;6.20;;;4.07;;
9823;SDS011;4951;50.778;7.196;2022-10-12T04:20:47;10.50;;;5.97;;
9823;SDS011;4951;50.778;7.196;2022-10-12T04:23:14;9.97;;;6.03;;
9823;SDS011;4951;50.778;7.196;2022-10-12T04:25:42;13.40;;;7.30;;
9823;SDS011;4951;50.778;7.196;2022-10-12T04:28:13;11.67;;;6.07;;
9823;SDS011;4951;50.778;7.196;2022-10-12T04:30:40;11.37;;;5.93;;
9823;SDS011;4951;50.778;7.196;2022-10-12T04:33:07;11.03;;;6.07;;
9823;SDS011;4951;50.778;7.196;2022-10-12T04:35:34;14.47;;;6.40;;
9823;SDS011;4951;50.778;7.196;2022-10-12T04:38:02;9.83;;;5.83;;
9823;SDS011;4951;50.778;7.196;2022-10-12T04:40:30;12.47;;;6.43;;
9823;SDS011;4951;50.778;7.196;2022-10-12T04:42:58;12.57;;;5.97;;
9823;SDS011;4951;50.778;7.196;2022-10-12T04:45:26;10.77;;;5.73;;
9823;SDS011;4951;50.778;7.196;2022-10-12T04:47:53;11.93;;;5.77;;
9823;SDS011;4951;50.778;7.196;2022-10-12T04:50:20;14.33;;;5.57;;
9823;SDS011;4951;50.778;7.196;2022-10-12T04:52:48;12.93;;;5.63;;
9823;SDS011;4951;50.778;7.196;2022-10-12T04:55:15;15.73;;;6.00;;
9823;SDS011;4951;50.778;7.196;2022-10-12T04:57:42;14.87;;;5.30;;
9823;SDS011;4951;50.778;7.196;2022-10-12T05:00:09;13.27;;;6.80;;
9823;SDS011;4951;50.778;7.196;2022-10-12T05:02:38;14.13;;;5.67;;
9823;SDS011;4951;50.778;7.196;2022-10-12T05:05:06;18.73;;;6.50;;
9823;SDS011;4951;50.778;7.196;2022-10-12T05:07:33;14.17;;;6.37;;
9823;SDS011;4951;50.778;7.196;2022-10-12T05:10:00;13.70;;;6.20;;
9823;SDS011;4951;50.778;7.196;2022-10-12T05:12:27;12.90;;;6.60;;
9823;SDS011;4951;50.778;7.196;2022-10-12T05:14:54;14.70;;;6.63;;
9823;SDS011;4951;50.778;7.196;2022-10-12T05:17:22;15.50;;;6.30;;
9823;SDS011;4951;50.778;7.196;2022-10-12T05:19:50;13.73;;;6.47;;
9823;SDS011;4951;50.778;7.196;2022-10-12T05:22:19;19.57;;;7.17;;
9823;SDS011;4951;50.778;7.196;2022-10-12T05:24:46;12.03;;;6.53;;
9823;SDS011;4951;50.778;7.196;2022-10-12T05:27:13;16.03;;;7.10;;
9823;SDS011;4951;50.778;7.196;2022-10-12T05:29:40;11.87;;;7.20;;
9823;SDS011;4951;50.778;7.196;2022-10-12T05:32:07;11.63;;;6.80;;
9823;SDS011;4951;50.778;7.196;2022-10-12T05:34:35;12.47;;;6.33;;
9823;SDS011;4951;50.778;7.196;2022-10-12T05:37:03;8.53;;;5.63;;
9823;SDS011;4951;50.778;7.196;2022-10-12T05:39:30;8.93;;;5.97;;
9823;SDS011;4951;50.778;7.196;2022-10-12T05:41:57;10.90;;;6.10;;
9823;SDS011;4951;50.778;7.196;2022-10-12T05:44:24;9.17;;;5.90;;
9823;SDS011;4951;50.778;7.196;2022-10-12T05:46:52;9.47;;;5.43;;
9823;SDS011;4951;50.778;7.196;2022-10-12T05:49:19;7.80;;;5.03;;
9823;SDS011;4951;50.778;7.196;2022-10-12T05:51:46;8.10;;;4.70;;
9823;SDS011;4951;50.778;7.196;2022-10-12T05:54:14;8.80;;;5.73;;
9823;SDS011;4951;50.778;7.196;2022-10-12T05:56:41;9.73;;;5.93;;
9823;SDS011;4951;50.778;7.196;2022-10-12T05:59:09;7.50;;;5.73;;
9823;SDS011;4951;50.778;7.196;2022-10-12T06:01:36;8.37;;;5.93;;
9823;SDS011;4951;50.778;7.196;2022-10-12T06:04:03;11.80;;;6.03;;
9823;SDS011;4951;50.778;7.196;2022-10-12T06:06:30;12.30;;;6.30;;
9823;SDS011;4951;50.778;7.196;2022-10-12T06:08:58;8.60;;;5.70;;
9823;SDS011;4951;50.778;7.196;2022-10-12T06:11:26;12.73;;;6.03;;
9823;SDS011;4951;50.778;7.196;2022-10-12T06:13:55;10.80;;;6.20;;
9823;SDS011;4951;50.778;7.196;2022-10-12T06:16:22;12.03;;;5.67;;
9823;SDS011;4951;50.778;7.196;2022-10-12T06:18:49;12.07;;;6.43;;
9823;SDS011;4951;50.778;7.196;2022-10-12T06:21:17;11.33;;;5.50;;
9823;SDS011;4951;50.778;7.196;2022-10-12T06:23:44;11.23;;;5.60;;
9823;SDS011;4951;50.778;7.196;2022-10-12T06:26:11;10.97;;;5.37;;
9823;SDS011;4951;50.778;7.196;2022-10-12T06:28:39;15.40;;;6.13;;
9823;SDS011;4951;50.778;7.196;2022-10-12T06:31:07;20.07;;;6.83;;
9823;SDS011;4951;50.778;7.196;2022-10-12T06:33:35;11.57;;;5.77;;
9823;SDS011;4951;50.778;7.196;2022-10-12T06:36:03;14.53;;;5.80;;
9823;SDS011;4951;50.778;7.196;2022-10-12T06:38:30;13.23;;;7.30;;
9823;SDS011;4951;50.778;7.196;2022-10-12T06:40:57;16.87;;;6.53;;
9823;SDS011;4951;50.778;7.196;2022-10-12T06:43:25;20.77;;;6.60;;
9823;SDS011;4951;50.778;7.196;2022-10-12T06:45:57;10.17;;;6.33;;
9823;SDS011;4951;50.778;7.196;2022-10-12T06:48:24;18.50;;;7.43;;
9823;SDS011;4951;50.778;7.196;2022-10-12T06:50:52;15.33;;;7.03;;
9823;SDS011;4951;50.778;7.196;2022-10-12T06:53:19;10.03;;;6.53;;
9823;SDS011;4951;50.778;7.196;2022-10-12T06:55:46;13.83;;;5.63;;
9823;SDS011;4951;50.778;7.196;2022-10-12T06:58:14;11.27;;;6.37;;
9823;SDS011;4951;50.778;7.196;2022-10-12T07:00:41;10.30;;;5.30;;
9823;SDS011;4951;50.778;7.196;2022-10-12T07:03:10;10.97;;;5.30;;
9823;SDS011;4951;50.778;7.196;2022-10-12T07:05:38;10.00;;;5.53;;
9823;SDS011;4951;50.778;7.196;2022-10-12T07:08:06;8.40;;;5.83;;
9823;SDS011;4951;50.778;7.196;2022-10-12T07:10:33;9.30;;;5.27;;
9823;SDS011;4951;50.778;7.196;2022-10-12T07:13:00;12.47;;;5.70;;
9823;SDS011;4951;50.778;7.196;2022-10-12T07:15:28;10.80;;;5.47;;
9823;SDS011;4951;50.778;7.196;2022-10-12T07:17:55;7.80;;;5.57;;
9823;SDS011;4951;50.778;7.196;2022-10-12T07:20:24;8.67;;;5.43;;
9823;SDS011;4951;50.778;7.196;2022-10-12T07:22:51;11.93;;;5.30;;
9823;SDS011;4951;50.778;7.196;2022-10-12T07:25:19;9.37;;;5.63;;
9823;SDS011;4951;50.778;7.196;2022-10-12T07:27:47;8.83;;;5.47;;
9823;SDS011;4951;50.778;7.196;2022-10-12T07:30:14;9.07;;;6.10;;
9823;SDS011;4951;50.778;7.196;2022-10-12T07:32:42;13.83;;;5.97;;
9823;SDS011;4951;50.778;7.196;2022-10-12T07:35:10;9.70;;;5.13;;
9823;SDS011;4951;50.778;7.196;2022-10-12T07:37:39;10.43;;;5.27;;
9823;SDS011;4951;50.778;7.196;2022-10-12T07:40:07;11.97;;;5.60;;
9823;SDS011;4951;50.778;7.196;2022-10-12T07:42:35;13.70;;;5.97;;
9823;SDS011;4951;50.778;7.196;2022-10-12T07:45:02;10.67;;;5.23;;
9823;SDS011;4951;50.778;7.196;2022-10-12T07:47:29;10.10;;;5.30;;
9823;SDS011;4951;50.778;7.196;2022-10-12T07:49:57;11.90;;;5.23;;
9823;SDS011;4951;50.778;7.196;2022-10-12T07:52:24;16.47;;;5.07;;
9823;SDS011;4951;50.778;7.196;2022-10-12T07:54:53;14.43;;;6.10;;
9823;SDS011;4951;50.778;7.196;2022-10-12T07:57:20;11.63;;;5.17;;
9823;SDS011;4951;50.778;7.196;2022-10-12T07:59:48;13.53;;;5.73;;
9823;SDS011;4951;50.778;7.196;2022-10-12T08:02:15;12.60;;;5.07;;
9823;SDS011;4951;50.778;7.196;2022-10-12T08:04:42;13.10;;;5.90;;
9823;SDS011;4951;50.778;7.196;2022-10-12T08:07:10;10.93;;;5.43;;
9823;SDS011;4951;50.778;7.196;2022-10-12T08:09:38;13.37;;;5.60;;
9823;SDS011;4951;50.778;7.196;2022-10-12T08:12:07;10.30;;;5.20;;
9823;SDS011;4951;50.778;7.196;2022-10-12T08:14:36;15.20;;;5.30;;
9823;SDS011;4951;50.778;7.196;2022-10-12T08:17:04;11.97;;;5.20;;
9823;SDS011;4951;50.778;7.196;2022-10-12T08:19:31;15.23;;;4.93;;
9823;SDS011;4951;50.778;7.196;2022-10-12T08:22:01;11.37;;;4.70;;
9823;SDS011;4951;50.778;7.196;2022-10-12T08:24:28;15.73;;;4.70;;
9823;SDS011;4951;50.778;7.196;2022-10-12T08:26:55;12.63;;;4.93;;
9823;SDS011;4951;50.778;7.196;2022-10-12T08:29:24;6.80;;;4.10;;
9823;SDS011;4951;50.778;7.196;2022-10-12T08:31:51;13.07;;;5.00;;
9823;SDS011;4951;50.778;7.196;2022-10-12T08:34:18;9.20;;;4.37;;
9823;SDS011;4951;50.778;7.196;2022-10-12T08:36:45;9.43;;;4.70;;
9823;SDS011;4951;50.778;7.196;2022-10-12T08:39:13;9.70;;;4.50;;
9823;SDS011;4951;50.778;7.196;2022-10-12T08:41:45;11.30;;;5.27;;
9823;SDS011;4951;50.778;7.196;2022-10-12T08:44:38;9.33;;;4.40;;
9823;SDS011;4951;50.778;7.196;2022-10-12T08:47:23;7.43;;;4.20;;
9823;SDS011;4951;50.778;7.196;2022-10-12T08:49:58;9.50;;;4.00;;
9823;SDS011;4951;50.778;7.196;2022-10-12T08:52:29;7.43;;;4.27;;
9823;SDS011;4951;50.778;7.196;2022-10-12T08:54:59;9.67;;;4.50;;
9823;SDS011;4951;50.778;7.196;2022-10-12T08:57:32;7.87;;;4.33;;
9823;SDS011;4951;50.778;7.196;2022-10-12T09:00:01;7.67;;;3.87;;
9823;SDS011;4951;50.778;7.196;2022-10-12T09:02:32;7.50;;;3.73;;
9823;SDS011;4951;50.778;7.196;2022-10-12T09:05:06;12.37;;;4.40;;
9823;SDS011;4951;50.778;7.196;2022-10-12T09:07:36;12.83;;;4.93;;
9823;SDS011;4951;50.778;7.196;2022-10-12T09:10:08;12.93;;;5.33;;
9823;SDS011;4951;50.778;7.196;2022-10-12T09:12:50;8.63;;;4.30;;
9823;SDS011;4951;50.778;7.196;2022-10-12T09:15:28;14.07;;;4.50;;
9823;SDS011;4951;50.778;7.196;2022-10-12T09:17:58;10.70;;;4.20;;
9823;SDS011;4951;50.778;7.196;2022-10-12T09:20:28;9.70;;;4.83;;
9823;SDS011;4951;50.778;7.196;2022-10-12T09:22:57;10.37;;;4.30;;
9823;SDS011;4951;50.778;7.196;2022-10-12T09:25:28;7.47;;;4.50;;
9823;SDS011;4951;50.778;7.196;2022-10-12T09:27:55;10.33;;;4.70;;
9823;SDS011;4951;50.778;7.196;2022-10-12T09:30:40;8.17;;;4.20;;
9823;SDS011;4951;50.778;7.196;2022-10-12T09:33:16;9.10;;;3.87;;
9823;SDS011;4951;50.778;7.196;2022-10-12T09:35:49;10.30;;;4.00;;
9823;SDS011;4951;50.778;7.196;2022-10-12T09:38:20;7.90;;;3.90;;
9823;SDS011;4951;50.778;7.196;2022-10-12T09:40:48;8.13;;;4.23;;
9823;SDS011;4951;50.778;7.196;2022-10-12T09:43:15;6.57;;;3.57;;
9823;SDS011;4951;50.778;7.196;2022-10-12T09:45:44;9.80;;;4.20;;
9823;SDS011;4951;50.778;7.196;2022-10-12T09:48:14;9.17;;;3.90;;
9823;SDS011;4951;50.778;7.196;2022-10-12T09:50:47;8.13;;;4.10;;
9823;SDS011;4951;50.778;7.196;2022-10-12T09:53:21;9.17;;;4.70;;
9823;SDS011;4951;50.778;7.196;2022-10-12T09:56:02;10.27;;;4.07;;
9823;SDS011;4951;50.778;7.196;2022-10-12T09:58:35;8.17;;;4.47;;
9823;SDS011;4951;50.778;7.196;2022-10-12T10:01:13;9.77;;;4.10;;
9823;SDS011;4951;50.778;7.196;2022-10-12T10:03:49;11.63;;;4.43;;
9823;SDS011;4951;50.778;7.196;2022-10-12T10:06:33;7.53;;;4.20;;
9823;SDS011;4951;50.778;7.196;2022-10-12T10:09:03;9.03;;;3.57;;
9823;SDS011;4951;50.778;7.196;2022-10-12T10:11:42;6.53;;;3.70;;
9823;SDS011;4951;50.778;7.196;2022-10-12T10:14:22;11.23;;;4.17;;
9823;SDS011;4951;50.778;7.196;2022-10-12T10:16:54;8.03;;;4.10;;
9823;SDS011;4951;50.778;7.196;2022-10-12T10:19:24;8.53;;;4.07;;
9823;SDS011;4951;50.778;7.196;2022-10-12T10:21:54;10.33;;;3.97;;
9823;SDS011;4951;50.778;7.196;2022-10-12T10:24:24;9.13;;;4.20;;
9823;SDS011;4951;50.778;7.196;2022-10-12T10:26:55;6.60;;;3.73;;
9823;SDS011;4951;50.778;7.196;2022-10-12T10:29:32;5.83;;;3.47;;
9823;SDS011;4951;50.778;7.196;2022-10-12T10:32:10;6.93;;;3.27;;
9823;SDS011;4951;50.778;7.196;2022-10-12T10:34:58;8.37;;;4.07;;
9823;SDS011;4951;50.778;7.196;2022-10-12T10:37:27;9.57;;;3.90;;
9823;SDS011;4951;50.778;7.196;2022-10-12T10:39:56;8.13;;;3.57;;
9823;SDS011;4951;50.778;7.196;2022-10-12T10:42:24;9.73;;;4.07;;
9823;SDS011;4951;50.778;7.196;2022-10-12T10:44:56;8.03;;;3.30;;
9823;SDS011;4951;50.778;7.196;2022-10-12T10:47:27;6.47;;;3.50;;
9823;SDS011;4951;50.778;7.196;2022-10-12T10:49:57;7.20;;;3.50;;
9823;SDS011;4951;50.778;7.196;2022-10-12T10:52:26;3.77;;;2.77;;
9823;SDS011;4951;50.778;7.196;2022-10-12T10:55:05;8.23;;;3.73;;
9823;SDS011;4951;50.778;7.196;2022-10-12T10:57:43;7.77;;;3.70;;
9823;SDS011;4951;50.778;7.196;2022-10-12T11:00:14;7.70;;;3.13;;
9823;SDS011;4951;50.778;7.196;2022-10-12T11:02:46;7.77;;;3.23;;
9823;SDS011;4951;50.778;7.196;2022-10-12T11:05:18;8.40;;;3.50;;
9823;SDS011;4951;50.778;7.196;2022-10-12T11:07:49;9.20;;;3.80;;
9823;SDS011;4951;50.778;7.196;2022-10-12T11:10:23;8.50;;;3.67;;
9823;SDS011;4951;50.778;7.196;2022-10-12T11:12:55;6.13;;;3.60;;
9823;SDS011;4951;50.778;7.196;2022-10-12T11:15:28;9.47;;;3.70;;
9823;SDS011;4951;50.778;7.196;2022-10-12T11:18:02;8.60;;;3.33;;
9823;SDS011;4951;50.778;7.196;2022-10-12T11:20:40;6.93;;;3.23;;
9823;SDS011;4951;50.778;7.196;2022-10-12T11:23:17;7.57;;;3.50;;
9823;SDS011;4951;50.778;7.196;2022-10-12T11:25:58;5.57;;;3.10;;
9823;SDS011;4951;50.778;7.196;2022-10-12T11:28:33;9.73;;;3.43;;
9823;SDS011;4951;50.778;7.196;2022-10-12T11:31:02;7.20;;;2.90;;
9823;SDS011;4951;50.778;7.196;2022-10-12T11:33:35;7.17;;;2.63;;
9823;SDS011;4951;50.778;7.196;2022-10-12T11:36:05;6.97;;;2.83;;
9823;SDS011;4951;50.778;7.196;2022-10-12T11:38:37;7.10;;;3.07;;
9823;SDS011;4951;50.778;7.196;2022-10-12T11:41:08;5.93;;;2.60;;
9823;SDS011;4951;50.778;7.196;2022-10-12T11:43:39;5.70;;;2.70;;
9823;SDS011;4951;50.778;7.196;2022-10-12T11:46:10;7.80;;;3.00;;
9823;SDS011;4951;50.778;7.196;2022-10-12T11:48:44;7.60;;;3.00;;
9823;SDS011;4951;50.778;7.196;2022-10-12T11:51:15;7.67;;;3.20;;
9823;SDS011;4951;50.778;7.196;2022-10-12T11:53:45;6.67;;;2.90;;
9823;SDS011;4951;50.778;7.196;2022-10-12T11:56:20;5.90;;;2.67;;
9823;SDS011;4951;50.778;7.196;2022-10-12T11:58:52;9.77;;;3.10;;
9823;SDS011;4951;50.778;7.196;2022-10-12T12:01:26;7.73;;;3.00;;
9823;SDS011;4951;50.778;7.196;2022-10-12T12:04:14;7.13;;;3.03;;
9823;SDS011;4951;50.778;7.196;2022-10-12T12:07:00;6.07;;;2.67;;
9823;SDS011;4951;50.778;7.196;2022-10-12T12:09:35;4.77;;;2.87;;
9823;SDS011;4951;50.778;7.196;2022-10-12T12:12:18;6.27;;;2.93;;
9823;SDS011;4951;50.778;7.196;2022-10-12T12:23:31;4.87;;;3.00;;
9823;SDS011;4951;50.778;7.196;2022-10-12T12:26:04;5.37;;;3.10;;
9823;SDS011;4951;50.778;7.196;2022-10-12T12:28:42;6.10;;;3.60;;
9823;SDS011;4951;50.778;7.196;2022-10-12T12:31:15;6.70;;;3.30;;
9823;SDS011;4951;50.778;7.196;2022-10-12T12:33:59;7.27;;;3.60;;
9823;SDS011;4951;50.778;7.196;2022-10-12T12:36:31;6.90;;;3.20;;
9823;SDS011;4951;50.778;7.196;2022-10-12T12:38:59;7.53;;;3.60;;
9823;SDS011;4951;50.778;7.196;2022-10-12T12:41:43;7.10;;;3.50;;
9823;SDS011;4951;50.778;7.196;2022-10-12T12:47:15;8.17;;;3.30;;
9823;SDS011;4951;50.778;7.196;2022-10-12T12:50:06;7.43;;;3.80;;
9823;SDS011;4951;50.778;7.196;2022-10-12T12:52:58;8.37;;;3.43;;
9823;SDS011;4951;50.778;7.196;2022-10-12T12:55:40;8.27;;;3.73;;
9823;SDS011;4951;50.778;7.196;2022-10-12T12:58:30;5.17;;;3.27;;
9823;SDS011;4951;50.778;7.196;2022-10-12T13:01:15;4.67;;;2.80;;
9823;SDS011;4951;50.778;7.196;2022-10-12T13:03:59;5.00;;;2.90;;
9823;SDS011;4951;50.778;7.196;2022-10-12T13:06:55;5.97;;;3.40;;
9823;SDS011;4951;50.778;7.196;2022-10-12T13:09:43;8.87;;;3.20;;
9823;SDS011;4951;50.778;7.196;2022-10-12T13:12:31;8.30;;;3.10;;
9823;SDS011;4951;50.778;7.196;2022-10-12T13:15:22;4.50;;;3.10;;
9823;SDS011;4951;50.778;7.196;2022-10-12T13:18:02;7.17;;;3.40;;
9823;SDS011;4951;50.778;7.196;2022-10-12T13:20:44;7.67;;;2.77;;
9823;SDS011;4951;50.778;7.196;2022-10-12T13:23:15;10.73;;;3.23;;
9823;SDS011;4951;50.778;7.196;2022-10-12T13:25:47;6.67;;;2.93;;
9823;SDS011;4951;50.778;7.196;2022-10-12T13:28:19;6.13;;;3.10;;
9823;SDS011;4951;50.778;7.196;2022-10-12T13:30:50;6.65;;;2.97;;
9823;SDS011;4951;50.778;7.196;2022-10-12T13:33:22;8.63;;;3.10;;
9823;SDS011;4951;50.778;7.196;2022-10-12T13:35:54;7.57;;;3.15;;
9823;SDS011;4951;50.778;7.196;2022-10-12T13:38:25;9.27;;;3.03;;
9823;SDS011;4951;50.778;7.196;2022-10-12T13:40:56;9.30;;;3.20;;
9823;SDS011;4951;50.778;7.196;2022-10-12T13:43:32;10.38;;;3.20;;
9823;SDS011;4951;50.778;7.196;2022-10-12T13:46:03;5.95;;;2.95;;
9823;SDS011;4951;50.778;7.196;2022-10-12T13:48:31;8.88;;;3.75;;
9823;SDS011;4951;50.778;7.196;2022-10-12T13:50:59;8.60;;;3.20;;
9823;SDS011;4951;50.778;7.196;2022-10-12T13:53:32;7.65;;;3.20;;
9823;SDS011;4951;50.778;7.196;2022-10-12T13:56:03;6.28;;;3.42;;
9823;SDS011;4951;50.778;7.196;2022-10-12T13:58:35;6.95;;;3.25;;
9823;SDS011;4951;50.778;7.196;2022-10-12T14:01:02;9.40;;;3.20;;
9823;SDS011;4951;50.778;7.196;2022-10-12T14:03:34;10.32;;;3.13;;
9823;SDS011;4951;50.778;7.196;2022-10-12T14:06:02;9.85;;;3.15;;
9823;SDS011;4951;50.778;7.196;2022-10-12T14:08:30;9.95;;;3.05;;
9823;SDS011;4951;50.778;7.196;2022-10-12T14:10:59;8.90;;;3.20;;
9823;SDS011;4951;50.778;7.196;2022-10-12T14:13:29;6.50;;;3.35;;
9823;SDS011;4951;50.778;7.196;2022-10-12T14:15:57;7.45;;;3.33;;
9823;SDS011;4951;50.778;7.196;2022-10-12T14:18:30;6.63;;;3.05;;
9823;SDS011;4951;50.778;7.196;2022-10-12T14:21:09;5.97;;;3.17;;
9823;SDS011;4951;50.778;7.196;2022-10-12T14:23:44;7.18;;;3.17;;
9823;SDS011;4951;50.778;7.196;2022-10-12T14:31:53;6.03;;;3.00;;
9823;SDS011;4951;50.778;7.196;2022-10-12T14:34:22;7.80;;;3.25;;
9823;SDS011;4951;50.778;7.196;2022-10-12T14:36:58;8.75;;;3.47;;
9823;SDS011;4951;50.778;7.196;2022-10-12T14:39:26;6.30;;;3.38;;
9823;SDS011;4951;50.778;7.196;2022-10-12T14:41:53;9.10;;;3.15;;
9823;SDS011;4951;50.778;7.196;2022-10-12T14:44:22;9.82;;;3.20;;
9823;SDS011;4951;50.778;7.196;2022-10-12T14:46:51;8.50;;;3.08;;
9823;SDS011;4951;50.778;7.196;2022-10-12T14:49:20;5.30;;;2.55;;
9823;SDS011;4951;50.778;7.196;2022-10-12T14:51:49;4.22;;;2.63;;
9823;SDS011;4951;50.778;7.196;2022-10-12T14:54:18;5.05;;;2.83;;
9823;SDS011;4951;50.778;7.196;2022-10-12T14:56:45;4.95;;;3.10;;
9823;SDS011;4951;50.778;7.196;2022-10-12T14:59:13;5.22;;;2.78;;
9823;SDS011;4951;50.778;7.196;2022-10-12T15:01:41;6.45;;;3.00;;
9823;SDS011;4951;50.778;7.196;2022-10-12T15:04:09;5.68;;;2.80;;
9823;SDS011;4951;50.778;7.196;2022-10-12T15:06:38;6.38;;;3.50;;
9823;SDS011;4951;50.778;7.196;2022-10-12T15:09:05;8.65;;;3.60;;
9823;SDS011;4951;50.778;7.196;2022-10-12T15:11:32;8.07;;;3.47;;
9823;SDS011;4951;50.778;7.196;2022-10-12T15:13:59;5.57;;;3.20;;
9823;SDS011;4951;50.778;7.196;2022-10-12T15:16:27;7.10;;;2.95;;
9823;SDS011;4951;50.778;7.196;2022-10-12T15:18:55;7.17;;;3.30;;
9823;SDS011;4951;50.778;7.196;2022-10-12T15:21:23;5.47;;;3.10;;
9823;SDS011;4951;50.778;7.196;2022-10-12T15:23:50;4.77;;;3.10;;
9823;SDS011;4951;50.778;7.196;2022-10-12T15:26:17;4.80;;;3.07;;
9823;SDS011;4951;50.778;7.196;2022-10-12T15:28:44;4.03;;;2.67;;
9823;SDS011;4951;50.778;7.196;2022-10-12T15:31:12;4.73;;;3.43;;
9823;SDS011;4951;50.778;7.196;2022-10-12T15:33:41;7.80;;;3.70;;
9823;SDS011;4951;50.778;7.196;2022-10-12T15:36:09;7.67;;;3.00;;
9823;SDS011;4951;50.778;7.196;2022-10-12T15:38:36;5.67;;;3.47;;
9823;SDS011;4951;50.778;7.196;2022-10-12T15:41:03;5.43;;;3.00;;
9823;SDS011;4951;50.778;7.196;2022-10-12T15:43:31;9.07;;;3.40;;
9823;SDS011;4951;50.778;7.196;2022-10-12T15:45:58;8.83;;;3.80;;
9823;SDS011;4951;50.778;7.196;2022-10-12T15:48:25;4.53;;;3.20;;
9823;SDS011;4951;50.778;7.196;2022-10-12T15:50:53;6.37;;;3.97;;